createdAt,value
2023-04-13T00:02:11.293Z,98810.98
2023-04-13T00:04:36.888Z,98814.92
2023-04-13T00:07:04.536Z,98823.06
2023-04-13T00:09:31.668Z,98814.20
2023-04-13T00:11:58.693Z,98817.53
2023-04-13T00:13:08.605Z,98812.03
2023-04-13T00:15:37.636Z,98819.58
2023-04-13T00:16:47.816Z,98826.56
2023-04-13T00:17:57.532Z,98829.73
2023-04-13T00:19:07.458Z,98821.53
2023-04-13T00:21:34.260Z,98812.03
2023-04-13T00:22:47.030Z,98824.09
2023-04-13T00:25:14.779Z,98831.70
2023-04-13T00:27:43.232Z,98819.92
2023-04-13T00:30:15.806Z,98813.13
2023-04-13T00:31:24.988Z,98824.22
2023-04-13T00:32:36.218Z,98821.36
2023-04-13T00:35:01.350Z,98815.52
2023-04-13T00:36:12.981Z,98825.78
2023-04-13T00:37:23.019Z,98812.48
2023-04-13T00:39:46.961Z,98817.95
2023-04-13T00:40:56.202Z,98815.41
2023-04-13T00:43:26.329Z,98815.48
2023-04-13T00:44:39.570Z,98818.91
2023-04-13T00:45:49.457Z,98809.53
2023-04-13T00:48:13.884Z,98796.45
2023-04-13T00:49:23.508Z,98800.52
2023-04-13T00:50:34.042Z,98793.91
2023-04-13T00:51:48.285Z,98789.70
2023-04-13T00:54:14.603Z,98788.16
2023-04-13T00:56:45.468Z,98812.37
2023-04-13T00:57:56.330Z,98810.10
2023-04-13T01:00:24.942Z,98793.82
2023-04-13T01:02:56.519Z,98799.77
2023-04-13T01:05:22.456Z,98800.88
2023-04-13T01:08:09.672Z,98798.03
2023-04-13T01:12:33.200Z,98801.56
2023-04-13T01:15:12.339Z,98802.52
2023-04-13T01:17:44.409Z,98789.13
2023-04-13T01:20:13.595Z,98782.58
2023-04-13T01:22:57.511Z,98782.19
2023-04-13T01:24:23.157Z,98785.17
2023-04-13T01:27:19.107Z,98781.20
2023-04-13T01:29:48.776Z,98777.02
2023-04-13T01:31:01.430Z,98777.84
2023-04-13T01:32:12.806Z,98777.73
2023-04-13T01:33:25.493Z,98777.20
2023-04-13T01:34:36.316Z,98781.89
2023-04-13T01:35:50.729Z,98780.45
2023-04-13T01:37:03.398Z,98783.89
2023-04-13T01:39:29.453Z,98782.51
2023-04-13T01:41:57.311Z,98786.20
2023-04-13T01:44:25.766Z,98792.68
2023-04-13T01:46:57.812Z,98795.23
2023-04-13T01:50:12.220Z,98788.14
2023-04-13T01:52:58.403Z,98782.81
2023-04-13T01:55:38.783Z,98771.39
2023-04-13T01:56:49.480Z,98781.71
2023-04-13T01:59:18.725Z,98776.45
2023-04-13T02:02:17.658Z,98800.20
2023-04-13T02:03:27.834Z,98814.34
2023-04-13T02:04:36.467Z,98803.59
2023-04-13T02:07:02.219Z,98797.09
2023-04-13T02:08:15.406Z,98808.97
2023-04-13T02:10:45.731Z,98808.55
2023-04-13T02:11:55.591Z,98808.67
2023-04-13T02:13:04.451Z,98808.98
2023-04-13T02:14:15.148Z,98809.95
2023-04-13T02:16:40.941Z,98802.32
2023-04-13T02:17:49.934Z,98804.47
2023-04-13T02:20:17.369Z,98801.47
2023-04-13T02:21:26.125Z,98811.09
2023-04-13T02:23:56.203Z,98801.95
2023-04-13T02:26:28.065Z,98796.69
2023-04-13T02:27:39.438Z,98798.84
2023-04-13T02:28:51.266Z,98804.80
2023-04-13T02:30:01.154Z,98812.77
2023-04-13T02:32:27.149Z,98809.41
2023-04-13T02:33:39.184Z,98810.52
2023-04-13T02:36:03.951Z,98803.04
2023-04-13T02:38:31.813Z,98796.36
2023-04-13T02:41:00.117Z,98807.84
2023-04-13T02:42:10.494Z,98806.44
2023-04-13T02:44:38.176Z,98808.27
2023-04-13T02:45:47.912Z,98811.80
2023-04-13T02:46:58.246Z,98805.16
2023-04-13T02:49:26.016Z,98804.45
2023-04-13T02:50:38.093Z,98801.88
2023-04-13T02:53:06.032Z,98800.59
2023-04-13T02:54:15.492Z,98792.97
2023-04-13T02:55:26.634Z,98795.49
2023-04-13T02:57:56.550Z,98791.22
2023-04-13T02:59:07.911Z,98794.80
2023-04-13T03:01:33.711Z,98799.98
2023-04-13T03:04:00.644Z,98798.88
2023-04-13T03:05:10.450Z,98797.79
2023-04-13T03:08:50.826Z,98804.33
2023-04-13T03:11:22.974Z,98801.62
2023-04-13T03:12:34.962Z,98802.19
2023-04-13T03:13:44.276Z,98803.45
2023-04-13T03:14:53.994Z,98802.91
2023-04-13T03:17:21.298Z,98803.87
2023-04-13T03:19:48.740Z,98803.41
2023-04-13T03:22:21.005Z,98808.35
2023-04-13T03:23:31.450Z,98816.73
2023-04-13T03:25:56.236Z,98818.64
2023-04-13T03:28:21.537Z,98812.95
2023-04-13T03:29:30.663Z,98818.64
2023-04-13T03:31:56.269Z,98833.34
2023-04-13T03:33:05.476Z,98821.06
2023-04-13T03:35:33.055Z,98824.02
2023-04-13T03:36:43.579Z,98825.20
2023-04-13T03:39:08.604Z,98817.70
2023-04-13T03:40:21.075Z,98827.23
2023-04-13T03:41:32.682Z,98822.70
2023-04-13T03:43:58.206Z,98823.98
2023-04-13T03:45:10.028Z,98824.55
2023-04-13T03:47:36.187Z,98817.75
2023-04-13T03:48:46.800Z,98834.14
2023-04-13T03:51:13.474Z,98822.98
2023-04-13T03:52:41.156Z,98823.39
2023-04-13T03:53:51.717Z,98823.41
2023-04-13T03:56:18.841Z,98819.42
2023-04-13T03:58:45.384Z,98833.85
2023-04-13T03:59:57.103Z,98833.42
2023-04-13T04:02:26.731Z,98833.67
2023-04-13T04:03:38.631Z,98840.05
2023-04-13T04:06:07.296Z,98830.09
2023-04-13T04:08:36.723Z,98837.38
2023-04-13T04:11:04.812Z,98833.30
2023-04-13T04:12:16.054Z,98840.56
2023-04-13T04:14:41.799Z,98838.55
2023-04-13T04:17:11.610Z,98842.52
2023-04-13T04:18:21.979Z,98838.70
2023-04-13T04:20:47.424Z,98850.14
2023-04-13T04:23:14.864Z,98846.27
2023-04-13T04:25:43.002Z,98842.77
2023-04-13T04:26:53.676Z,98850.41
2023-04-13T04:29:25.062Z,98850.85
2023-04-13T04:31:53.217Z,98857.79
2023-04-13T04:33:04.864Z,98859.52
2023-04-13T04:34:16.860Z,98860.22
2023-04-13T04:35:30.070Z,98858.25
2023-04-13T04:37:58.628Z,98865.02
2023-04-13T04:40:25.250Z,98861.49
2023-04-13T04:42:52.312Z,98852.45
2023-04-13T04:45:29.824Z,98864.45
2023-04-13T04:47:59.066Z,98853.98
2023-04-13T04:50:26.660Z,98847.05
2023-04-13T04:51:41.555Z,98851.30
2023-04-13T04:54:08.547Z,98845.34
2023-04-13T04:56:33.219Z,98840.56
2023-04-13T04:58:58.896Z,98831.91
2023-04-13T05:01:34.435Z,98819.87
2023-04-13T05:02:51.907Z,98834.30
2023-04-13T05:05:17.543Z,98824.82
2023-04-13T05:07:42.371Z,98840.52
2023-04-13T05:10:08.687Z,98856.73
2023-04-13T05:12:36.768Z,98858.22
2023-04-13T05:13:45.568Z,98858.91
2023-04-13T05:16:18.435Z,98850.36
2023-04-13T05:18:47.016Z,98856.55
2023-04-13T05:20:24.149Z,98863.41
2023-04-13T05:21:34.754Z,98859.61
2023-04-13T05:24:00.014Z,98862.86
2023-04-13T05:26:27.089Z,98865.16
2023-04-13T05:28:52.815Z,98859.33
2023-04-13T05:30:04.103Z,98862.04
2023-04-13T05:33:41.129Z,98860.27
2023-04-13T05:34:51.299Z,98862.98
2023-04-13T05:36:03.535Z,98855.48
2023-04-13T05:37:15.351Z,98854.91
2023-04-13T05:39:42.079Z,98855.33
2023-04-13T05:42:08.175Z,98854.47
2023-04-13T05:44:35.854Z,98858.98
2023-04-13T05:47:01.784Z,98868.91
2023-04-13T05:49:28.997Z,98870.85
2023-04-13T05:50:40.634Z,98871.45
2023-04-13T05:53:09.246Z,98864.56
2023-04-13T05:54:20.587Z,98870.70
2023-04-13T05:55:32.728Z,98869.68
2023-04-13T05:58:03.944Z,98870.05
2023-04-13T06:00:32.883Z,98864.86
2023-04-13T06:03:03.113Z,98863.72
2023-04-13T06:04:14.078Z,98869.98
2023-04-13T06:06:39.523Z,98863.72
2023-04-13T06:07:48.551Z,98861.75
2023-04-13T06:10:16.234Z,98864.11
2023-04-13T06:12:42.200Z,98859.33
2023-04-13T06:13:50.831Z,98864.75
2023-04-13T06:16:19.066Z,98869.11
2023-04-13T06:18:42.975Z,98865.55
2023-04-13T06:19:52.493Z,98866.61
2023-04-13T06:22:16.300Z,98865.16
2023-04-13T06:24:39.987Z,98862.47
2023-04-13T06:25:51.168Z,98871.27
2023-04-13T06:27:04.017Z,98875.22
2023-04-13T06:28:12.827Z,98874.38
2023-04-13T06:30:38.508Z,98874.38
2023-04-13T06:33:05.945Z,98870.02
2023-04-13T06:34:16.167Z,98881.50
2023-04-13T06:36:40.132Z,98879.61
2023-04-13T06:39:03.808Z,98888.80
2023-04-13T06:41:50.160Z,98897.03
2023-04-13T06:44:21.752Z,98894.90
2023-04-13T06:45:35.963Z,98903.84
2023-04-13T06:48:02.617Z,98890.05
2023-04-13T06:49:14.305Z,98894.48
2023-04-13T06:51:40.048Z,98883.11
2023-04-13T06:54:07.202Z,98878.44
2023-04-13T06:56:33.915Z,98878.39
2023-04-13T06:59:02.328Z,98885.72
2023-04-13T07:03:16.958Z,98891.47
2023-04-13T07:04:29.122Z,98889.13
2023-04-13T07:07:13.901Z,98884.98
2023-04-13T07:08:25.450Z,98891.15
2023-04-13T07:09:34.501Z,98893.27
2023-04-13T07:12:04.305Z,98890.83
2023-04-13T07:14:37.104Z,98887.87
2023-04-13T07:17:02.596Z,98895.70
2023-04-13T07:18:13.286Z,98901.23
2023-04-13T07:19:24.431Z,98901.20
2023-04-13T07:21:50.104Z,98900.25
2023-04-13T07:24:13.900Z,98893.25
2023-04-13T07:26:41.034Z,98902.67
2023-04-13T07:27:50.461Z,98902.42
2023-04-13T07:30:16.818Z,98907.16
2023-04-13T07:31:27.869Z,98904.37
2023-04-13T07:33:54.752Z,98906.54
2023-04-13T07:36:22.918Z,98907.62
2023-04-13T07:38:47.523Z,98902.70
2023-04-13T07:41:15.496Z,98901.70
2023-04-13T07:43:40.609Z,98907.23
2023-04-13T07:46:12.054Z,98908.16
2023-04-13T07:48:38.228Z,98911.16
2023-04-13T07:51:03.897Z,98905.86
2023-04-13T07:53:29.552Z,98906.78
2023-04-13T07:54:38.857Z,98911.94
2023-04-13T07:55:49.332Z,98916.02
2023-04-13T07:58:14.188Z,98923.30
2023-04-13T08:00:38.681Z,98919.81
2023-04-13T08:03:24.574Z,98920.89
2023-04-13T08:05:49.914Z,98919.97
2023-04-13T08:08:20.265Z,98924.84
2023-04-13T08:10:47.654Z,98934.45
2023-04-13T08:13:16.003Z,98921.59
2023-04-13T08:15:39.971Z,98930.84
2023-04-13T08:18:05.786Z,98935.32
2023-04-13T08:20:29.922Z,98949.87
2023-04-13T08:22:58.803Z,98945.31
2023-04-13T08:24:07.859Z,98941.13
2023-04-13T08:26:32.148Z,98936.39
2023-04-13T08:28:58.125Z,98934.52
2023-04-13T08:31:25.930Z,98935.55
2023-04-13T08:33:52.726Z,98941.16
2023-04-13T08:36:18.735Z,98938.54
2023-04-13T08:37:29.711Z,98939.33
2023-04-13T08:39:57.878Z,98949.63
2023-04-13T08:42:27.036Z,98948.63
2023-04-13T08:43:36.503Z,98944.61
2023-04-13T08:44:46.013Z,98946.99
2023-04-13T08:47:11.999Z,98943.92
2023-04-13T08:49:41.964Z,98950.55
2023-04-13T08:50:58.910Z,98942.41
2023-04-13T08:52:11.413Z,98949.16
2023-04-13T08:53:22.916Z,98952.41
2023-04-13T08:55:52.037Z,98948.41
2023-04-13T08:58:23.926Z,98949.16
2023-04-13T09:02:08.790Z,98947.02
2023-04-13T09:04:44.724Z,98949.41
2023-04-13T09:07:21.390Z,98949.64
2023-04-13T09:09:52.154Z,98954.03
2023-04-13T09:11:02.487Z,98948.55
2023-04-13T09:12:11.478Z,98947.23
2023-04-13T09:14:37.898Z,98953.06
2023-04-13T09:17:07.430Z,98944.96
2023-04-13T09:18:18.822Z,98948.56
2023-04-13T09:19:33.363Z,98965.16
2023-04-13T09:20:56.156Z,98956.75
2023-04-13T09:23:28.791Z,98951.73
2023-04-13T09:26:09.051Z,98955.20
2023-04-13T09:28:49.579Z,98949.17
2023-04-13T09:31:16.248Z,98945.56
2023-04-13T09:33:48.907Z,98943.50
2023-04-13T09:36:22.052Z,98949.13
2023-04-13T09:38:54.442Z,98953.58
2023-04-13T09:43:09.261Z,98947.87
2023-04-13T09:44:20.052Z,98963.46
2023-04-13T09:47:01.487Z,98966.06
2023-04-13T09:49:43.424Z,98961.28
2023-04-13T09:52:23.919Z,98951.73
2023-04-13T09:55:02.720Z,98956.19
2023-04-13T09:56:12.496Z,98961.50
2023-04-13T09:58:47.759Z,98964.84
2023-04-13T10:01:16.372Z,98961.59
2023-04-13T10:03:42.282Z,98963.61
2023-04-13T10:04:52.786Z,98966.68
2023-04-13T10:07:22.312Z,98971.85
2023-04-13T10:09:47.205Z,98974.55
2023-04-13T10:11:00.289Z,98978.61
2023-04-13T10:14:48.309Z,98976.28
2023-04-13T10:17:39.408Z,98991.54
2023-04-13T10:20:19.025Z,98988.73
2023-04-13T10:21:35.366Z,98993.30
2023-04-13T10:22:45.945Z,98993.30
2023-04-13T10:25:25.292Z,98986.19
2023-04-13T10:27:57.984Z,98989.57
2023-04-13T10:29:09.448Z,98991.73
2023-04-13T10:31:39.662Z,99001.22
2023-04-13T10:34:11.128Z,98993.18
2023-04-13T10:36:42.158Z,98995.91
2023-04-13T10:39:17.974Z,98988.36
2023-04-13T10:41:43.722Z,98998.56
2023-04-13T10:42:53.388Z,98991.20
2023-04-13T10:45:27.393Z,98987.97
2023-04-13T10:47:53.499Z,98988.54
2023-04-13T10:50:24.016Z,98996.77
2023-04-13T10:53:06.295Z,99013.48
2023-04-13T10:55:35.945Z,99007.19
2023-04-13T10:58:16.682Z,99005.36
2023-04-13T11:01:00.486Z,99014.44
2023-04-13T11:03:29.056Z,99029.22
2023-04-13T11:05:58.684Z,99028.65
2023-04-13T11:08:27.371Z,99024.82
2023-04-13T11:11:15.296Z,99034.46
2023-04-13T11:13:46.749Z,99034.06
2023-04-13T11:16:12.633Z,99029.80
2023-04-13T11:18:36.254Z,99028.28
2023-04-13T11:21:18.789Z,99025.98
2023-04-13T11:23:53.509Z,99022.88
2023-04-13T11:26:38.477Z,99017.61
2023-04-13T11:29:11.387Z,99016.73
2023-04-13T11:31:40.310Z,99020.28
2023-04-13T11:34:16.573Z,99013.56
2023-04-13T11:36:44.936Z,99014.28
2023-04-13T11:39:15.229Z,99021.80
2023-04-13T11:41:44.619Z,99019.83
2023-04-13T11:42:55.829Z,99009.80
2023-04-13T11:45:23.191Z,99018.72
2023-04-13T11:46:33.634Z,99014.49
2023-04-13T11:47:44.826Z,99020.44
2023-04-13T11:50:13.575Z,99020.44
2023-04-13T11:52:42.403Z,99016.31
2023-04-13T11:55:21.634Z,99015.60
2023-04-13T11:57:37.336Z,99014.31
2023-04-13T12:00:11.447Z,99014.73
2023-04-13T12:03:00.427Z,99026.65
2023-04-13T12:05:26.504Z,99023.66
2023-04-13T12:06:40.606Z,99037.01
2023-04-13T12:09:11.049Z,99026.14
2023-04-13T12:11:46.628Z,99020.73
2023-04-13T12:14:49.357Z,99025.14
2023-04-13T12:19:30.402Z,99019.36
2023-04-13T12:22:00.366Z,99026.31
2023-04-13T12:24:40.546Z,99019.21
2023-04-13T12:27:19.978Z,99017.39
2023-04-13T12:29:46.232Z,99024.16
2023-04-13T12:32:24.477Z,99022.89
2023-04-13T12:34:50.177Z,99019.50
2023-04-13T12:37:14.213Z,99021.19
2023-04-13T12:38:25.119Z,99025.01
2023-04-13T12:42:12.635Z,99019.73
2023-04-13T12:44:39.449Z,99031.05
2023-04-13T12:47:06.710Z,99028.80
2023-04-13T12:49:31.340Z,99032.36
2023-04-13T12:51:55.354Z,99032.48
2023-04-13T12:54:19.012Z,99024.49
2023-04-13T12:56:42.579Z,99032.58
2023-04-13T12:59:07.881Z,99027.34
2023-04-13T13:01:36.422Z,99036.11
2023-04-13T13:02:45.962Z,99030.33
2023-04-13T13:05:11.269Z,99035.55
2023-04-13T13:07:56.998Z,99028.38
2023-04-13T13:10:29.785Z,99031.47
2023-04-13T13:12:50.829Z,99028.75
2023-04-13T13:15:17.125Z,99034.86
2023-04-13T13:17:43.551Z,99033.11
2023-04-13T13:20:11.754Z,99032.81
2023-04-13T13:22:36.506Z,99036.83
2023-04-13T13:25:07.568Z,99037.81
2023-04-13T13:30:06.493Z,99031.82
2023-04-13T13:32:30.966Z,99031.98
2023-04-13T13:34:57.931Z,99040.06
2023-04-13T13:37:23.655Z,99036.83
2023-04-13T13:38:35.072Z,99047.76
2023-04-13T13:40:59.055Z,99045.52
2023-04-13T13:43:31.410Z,99037.82
2023-04-13T13:45:57.063Z,99039.27
2023-04-13T13:48:25.204Z,99041.09
2023-04-13T13:50:51.550Z,99045.22
2023-04-13T13:53:16.003Z,99048.81
2023-04-13T13:54:25.454Z,99050.69
2023-04-13T13:55:34.888Z,99046.42
2023-04-13T13:57:59.464Z,99038.86
2023-04-13T14:00:25.313Z,99047.51
2023-04-13T14:02:50.501Z,99043.41
2023-04-13T14:05:17.646Z,99042.09
2023-04-13T14:07:44.646Z,99042.67
2023-04-13T14:08:56.515Z,99047.63
2023-04-13T14:11:23.654Z,99045.55
2023-04-13T14:13:49.362Z,99054.61
2023-04-13T14:16:12.958Z,99055.99
2023-04-13T14:17:23.541Z,99052.76
2023-04-13T14:19:47.845Z,99056.42
2023-04-13T14:22:17.051Z,99060.22
2023-04-13T14:24:40.749Z,99059.80
2023-04-13T14:27:05.213Z,99075.00
2023-04-13T14:29:29.265Z,99070.30
2023-04-13T14:31:56.669Z,99070.31
2023-04-13T14:34:22.218Z,99075.41
2023-04-13T14:36:49.334Z,99077.83
2023-04-13T14:37:57.314Z,99082.94
2023-04-13T14:40:23.566Z,99073.00
2023-04-13T14:42:50.476Z,99071.17
2023-04-13T14:45:14.900Z,99078.96
2023-04-13T14:47:43.763Z,99076.70
2023-04-13T14:50:09.332Z,99074.14
2023-04-13T14:52:34.346Z,99066.33
2023-04-13T14:55:02.042Z,99070.87
2023-04-13T14:57:28.649Z,99083.92
2023-04-13T14:58:39.811Z,99081.98
2023-04-13T15:01:08.589Z,99084.55
2023-04-13T15:03:33.990Z,99083.41
2023-04-13T15:06:03.469Z,99084.40
2023-04-13T15:08:26.737Z,99088.49
2023-04-13T15:10:53.131Z,99098.28
2023-04-13T15:13:19.303Z,99086.77
2023-04-13T15:14:29.911Z,99102.95
2023-04-13T15:18:06.754Z,99095.43
2023-04-13T15:20:50.603Z,99089.18
2023-04-13T15:23:19.351Z,99089.17
2023-04-13T15:24:28.075Z,99089.91
2023-04-13T15:26:53.010Z,99086.23
2023-04-13T15:28:02.836Z,99091.63
2023-04-13T15:30:30.375Z,99081.95
2023-04-13T15:32:56.668Z,99087.66
2023-04-13T15:35:26.931Z,99095.73
2023-04-13T15:37:54.842Z,99097.56
2023-04-13T15:40:27.874Z,99091.22
2023-04-13T15:42:52.540Z,99099.84
2023-04-13T15:45:18.691Z,99097.02
2023-04-13T15:47:43.628Z,99090.19
2023-04-13T15:48:54.437Z,99100.82
2023-04-13T15:51:22.156Z,99090.30
2023-04-13T15:54:07.803Z,99094.97
2023-04-13T15:56:32.704Z,99100.66
2023-04-13T15:59:16.986Z,99100.08
2023-04-13T16:00:27.413Z,99105.34
2023-04-13T16:03:03.578Z,99107.80
2023-04-13T16:05:28.827Z,99096.13
2023-04-13T16:07:55.505Z,99099.55
2023-04-13T16:10:19.691Z,99106.04
2023-04-13T16:12:45.069Z,99105.48
2023-04-13T16:15:13.401Z,99102.34
2023-04-13T16:17:40.995Z,99106.06
2023-04-13T16:20:13.353Z,99107.47
2023-04-13T16:21:23.714Z,99114.86
2023-04-13T16:22:34.941Z,99115.30
2023-04-13T16:24:58.873Z,99120.40
2023-04-13T16:27:22.670Z,99122.80
2023-04-13T16:29:46.600Z,99115.72
2023-04-13T16:32:12.457Z,99127.71
2023-04-13T16:34:36.914Z,99126.13
2023-04-13T16:35:46.874Z,99135.83
2023-04-13T16:36:57.700Z,99140.66
2023-04-13T16:39:21.967Z,99135.27
2023-04-13T16:41:48.065Z,99143.52
2023-04-13T16:44:32.292Z,99146.20
2023-04-13T16:45:41.918Z,99148.45
2023-04-13T16:48:28.696Z,99147.77
2023-04-13T16:49:37.750Z,99146.06
2023-04-13T16:52:03.444Z,99137.28
2023-04-13T16:54:47.282Z,99149.77
2023-04-13T16:57:13.936Z,99149.33
2023-04-13T16:59:40.186Z,99145.50
2023-04-13T17:02:05.051Z,99155.14
2023-04-13T17:04:28.934Z,99153.54
2023-04-13T17:07:01.959Z,99163.01
2023-04-13T17:09:28.982Z,99157.82
2023-04-13T17:11:53.741Z,99166.32
2023-04-13T17:13:02.710Z,99171.58
2023-04-13T17:15:28.331Z,99170.73
2023-04-13T17:18:01.187Z,99179.11
2023-04-13T17:20:26.018Z,99176.55
2023-04-13T17:21:35.766Z,99173.98
2023-04-13T17:22:46.381Z,99182.21
2023-04-13T17:25:10.760Z,99180.64
2023-04-13T17:27:37.197Z,99194.12
2023-04-13T17:30:02.478Z,99184.91
2023-04-13T17:32:27.595Z,99183.92
2023-04-13T17:34:52.954Z,99195.42
2023-04-13T17:37:18.391Z,99192.15
2023-04-13T17:38:27.040Z,99200.52
2023-04-13T17:40:51.997Z,99199.11
2023-04-13T17:42:01.147Z,99206.05
2023-04-13T17:43:10.281Z,99212.97
2023-04-13T17:44:21.107Z,99211.13
2023-04-13T17:46:45.650Z,99197.67
2023-04-13T17:49:11.307Z,99195.28
2023-04-13T17:51:36.309Z,99197.54
2023-04-13T17:52:46.027Z,99202.48
2023-04-13T17:55:10.570Z,99200.36
2023-04-13T17:56:20.777Z,99211.66
2023-04-13T17:58:45.562Z,99210.12
2023-04-13T18:01:11.840Z,99200.67
2023-04-13T18:03:36.604Z,99209.73
2023-04-13T18:06:01.190Z,99201.36
2023-04-13T18:08:19.536Z,99214.84
2023-04-13T18:10:44.255Z,99212.03
2023-04-13T18:11:53.389Z,99215.13
2023-04-13T18:14:16.990Z,99216.72
2023-04-13T18:16:40.751Z,99216.58
2023-04-13T18:19:05.364Z,99220.39
2023-04-13T18:20:21.444Z,99229.47
2023-04-13T18:22:47.960Z,99215.13
2023-04-13T18:23:59.034Z,99219.67
2023-04-13T18:26:24.640Z,99211.05
2023-04-13T18:27:33.721Z,99223.91
2023-04-13T18:28:43.601Z,99221.94
2023-04-13T18:32:22.442Z,99226.89
2023-04-13T18:33:32.361Z,99219.94
2023-04-13T18:35:58.177Z,99223.91
2023-04-13T18:38:23.924Z,99225.05
2023-04-13T18:40:51.067Z,99223.31
2023-04-13T18:43:15.758Z,99223.30
2023-04-13T18:45:43.155Z,99219.26
2023-04-13T18:48:09.197Z,99229.05
2023-04-13T18:50:33.265Z,99217.63
2023-04-13T18:53:00.228Z,99221.93
2023-04-13T18:54:10.881Z,99224.04
2023-04-13T18:56:34.654Z,99221.47
2023-04-13T18:58:59.662Z,99225.30
2023-04-13T19:01:26.525Z,99228.06
2023-04-13T19:03:53.169Z,99228.28
2023-04-13T19:06:18.030Z,99219.54
2023-04-13T19:07:28.804Z,99227.61
2023-04-13T19:08:37.479Z,99226.30
2023-04-13T19:11:01.405Z,99220.23
2023-04-13T19:13:25.097Z,99227.01
2023-04-13T19:15:48.884Z,99225.34
2023-04-13T19:18:14.138Z,99222.17
2023-04-13T19:20:39.925Z,99225.73
2023-04-13T19:23:10.116Z,99229.96
2023-04-13T19:24:19.748Z,99227.83
2023-04-13T19:26:45.467Z,99228.28
2023-04-13T19:29:13.435Z,99223.84
2023-04-13T19:31:39.188Z,99226.35
2023-04-13T19:34:06.926Z,99226.30
2023-04-13T19:36:32.304Z,99224.02
2023-04-13T19:38:56.981Z,99226.53
2023-04-13T19:41:26.946Z,99226.43
2023-04-13T19:43:52.289Z,99229.31
2023-04-13T19:46:16.033Z,99224.73
2023-04-13T19:48:41.747Z,99237.95
2023-04-13T19:51:07.063Z,99229.31
2023-04-13T19:53:31.842Z,99229.52
2023-04-13T19:54:40.752Z,99238.50
2023-04-13T19:57:06.911Z,99231.22
2023-04-13T19:59:31.246Z,99239.89
2023-04-13T20:01:58.401Z,99237.52
2023-04-13T20:04:24.713Z,99244.85
2023-04-13T20:07:10.523Z,99240.87
2023-04-13T20:09:34.970Z,99243.66
2023-04-13T20:12:00.371Z,99237.89
2023-04-13T20:13:10.226Z,99245.50
2023-04-13T20:15:35.463Z,99243.66
2023-04-13T20:17:59.668Z,99248.89
2023-04-13T20:19:12.444Z,99249.08
2023-04-13T20:21:42.053Z,99241.38
2023-04-13T20:22:51.886Z,99247.88
2023-04-13T20:25:16.729Z,99244.20
2023-04-13T20:26:28.092Z,99255.14
2023-04-13T20:30:15.880Z,99244.77
2023-04-13T20:32:41.519Z,99254.05
2023-04-13T20:35:08.672Z,99247.77
2023-04-13T20:37:36.271Z,99251.30
2023-04-13T20:40:02.439Z,99251.54
2023-04-13T20:42:32.640Z,99250.59
2023-04-13T20:44:58.081Z,99250.05
2023-04-13T20:47:27.814Z,99254.81
2023-04-13T20:51:15.272Z,99245.59
2023-04-13T20:53:46.255Z,99240.22
2023-04-13T20:54:56.796Z,99247.55
2023-04-13T20:57:22.838Z,99248.80
2023-04-13T20:59:51.390Z,99250.38
2023-04-13T21:02:17.511Z,99255.58
2023-04-13T21:04:45.364Z,99256.87
2023-04-13T21:07:13.951Z,99258.55
2023-04-13T21:08:28.077Z,99260.45
2023-04-13T21:10:54.032Z,99254.87
2023-04-13T21:13:21.253Z,99255.37
2023-04-13T21:15:47.833Z,99253.02
2023-04-13T21:18:12.718Z,99251.35
2023-04-13T21:20:41.983Z,99252.36
2023-04-13T21:23:11.975Z,99248.19
2023-04-13T21:25:37.547Z,99261.48
2023-04-13T21:26:47.528Z,99260.25
2023-04-13T21:27:58.269Z,99257.95
2023-04-13T21:29:08.185Z,99261.69
2023-04-13T21:31:32.756Z,99264.60
2023-04-13T21:34:00.350Z,99257.68
2023-04-13T21:38:53.978Z,99268.41
2023-04-13T21:41:21.424Z,99249.66
2023-04-13T21:42:31.405Z,99273.73
2023-04-13T21:44:58.712Z,99261.41
2023-04-13T21:47:22.860Z,99265.39
2023-04-13T21:49:48.421Z,99265.16
2023-04-13T21:50:58.017Z,99264.81
2023-04-13T21:53:25.710Z,99256.54
2023-04-13T21:55:49.251Z,99266.84
2023-04-13T21:58:12.990Z,99261.70
2023-04-13T22:00:39.713Z,99258.23
2023-04-13T22:03:04.313Z,99259.95
2023-04-13T22:05:30.122Z,99266.17
2023-04-13T22:07:55.219Z,99271.41
2023-04-13T22:10:20.726Z,99264.45
2023-04-13T22:12:44.784Z,99257.20
2023-04-13T22:13:54.120Z,99265.12
2023-04-13T22:16:39.706Z,99256.83
2023-04-13T22:19:03.859Z,99252.84
2023-04-13T22:20:14.774Z,99261.64
2023-04-13T22:21:24.784Z,99257.11
2023-04-13T22:22:33.901Z,99254.64
2023-04-13T22:24:57.538Z,99249.27
2023-04-13T22:27:23.386Z,99245.42
2023-04-13T22:29:48.707Z,99254.44
2023-04-13T22:32:16.424Z,99255.48
2023-04-13T22:34:44.114Z,99248.19
2023-04-13T22:35:53.747Z,99252.45
2023-04-13T22:38:19.624Z,99251.55
2023-04-13T22:41:06.785Z,99262.68
2023-04-13T22:43:32.308Z,99264.59
2023-04-13T22:46:17.907Z,99262.04
2023-04-13T22:48:41.709Z,99265.77
2023-04-13T22:49:50.588Z,99265.53
2023-04-13T22:51:00.790Z,99267.55
2023-04-13T22:53:27.370Z,99254.37
2023-04-13T22:55:51.067Z,99256.97
2023-04-13T22:57:05.205Z,99260.30
2023-04-13T22:58:14.035Z,99260.02
2023-04-13T22:59:25.372Z,99256.59
2023-04-13T23:01:50.413Z,99255.15
2023-04-13T23:03:00.319Z,99260.53
2023-04-13T23:05:24.258Z,99255.20
2023-04-13T23:07:51.816Z,99267.58
2023-04-13T23:09:01.711Z,99264.66
2023-04-13T23:11:26.911Z,99266.86
2023-04-13T23:13:56.690Z,99257.70
2023-04-13T23:16:24.154Z,99271.67
2023-04-13T23:18:48.904Z,99266.80
2023-04-13T23:22:46.797Z,99265.06
2023-04-13T23:23:55.991Z,99272.86
2023-04-13T23:26:42.295Z,99272.86
2023-04-13T23:29:07.189Z,99270.13
2023-04-13T23:31:33.131Z,99275.19
2023-04-13T23:33:58.517Z,99277.66
2023-04-13T23:36:25.148Z,99277.55
2023-04-13T23:38:49.253Z,99282.87
2023-04-13T23:41:13.919Z,99276.58
2023-04-13T23:42:23.768Z,99285.19
2023-04-13T23:44:48.755Z,99285.33
2023-04-13T23:47:16.952Z,99286.77
2023-04-13T23:49:51.348Z,99274.94
2023-04-13T23:52:15.422Z,99284.22
2023-04-13T23:54:41.293Z,99289.28
2023-04-13T23:57:05.908Z,99290.20
2023-04-13T23:58:15.513Z,99297.13
